Flight Track Log - Related Links

Times and Time Zones

All times are in EDT time to prevent confusion due to time zone crossing. See the ACA58 flight status page for this flight to view local times or setup timezone preferences in your user account.

Time Position Orientation Groundspeed Altitude Reporting Facility
EDT Latitude Longitude Course Direction KTS MPH feet Rate Location/Type
Sun 02:50:59 AM 20.9167 -156.4000 North 180 207 1,500  Level Honolulu Center
Sun 02:51:59 AM 20.9833 -156.4167 347° North 250 288 3,700 2,450 Climbing Honolulu Center
Sun 02:52:59 AM 21.0500 -156.4167 360° North 280 322 6,400 2,900 Climbing Honolulu Center
Sun 02:53:00 AM 21.2814 -156.4021 North  Level FlightAware Approximate
Sun 02:53:59 AM 21.1333 -156.4167 360° North 290 334 9,500  Level Honolulu Center
Sun 02:54:00 AM 21.4142 -156.4000 North  Level FlightAware Approximate
Sun 02:54:59 AM 21.2167 -156.4000 11° North 320 368 11,200  Level Honolulu Center
Sun 02:55:00 AM 21.5472 -156.4000 North  Level FlightAware Approximate
Sun 02:56:00 AM 21.6800 -156.3988 North  Level FlightAware Approximate
Sun 02:56:00 AM 21.3333 -156.4000 360° North 390 449 12,900  Level Honolulu Center
Sun 02:57:00 AM 21.4333 -156.4000 360° North 400 460 16,000 2,850 Climbing Honolulu Center
Sun 02:58:00 AM 21.5500 -156.4000 360° North 410 472 18,600 2,350 Climbing Honolulu Center
Sun 02:59:00 AM 21.6667 -156.4000 360° North 430 495 20,700 1,850 Climbing Honolulu Center
Sun 03:00:00 AM 21.7833 -156.3833 North 460 529 22,300 1,750 Climbing Honolulu Center
Sun 03:01:00 AM 21.9000 -156.3833 360° North 460 529 24,200 1,700 Climbing Honolulu Center
Sun 03:02:00 AM 22.0333 -156.3833 360° North 480 552 25,700 1,650 Climbing Honolulu Center
Sun 03:03:00 AM 22.1833 -156.3833 360° North 490 564 27,500 2,150 Climbing Honolulu Center
Sun 03:04:00 AM 22.3167 -156.3667 North 480 552 30,000 1,884 Climbing Honolulu Center
Sun 03:05:01 AM 22.4500 -156.3667 360° North 480 552 31,300 1,488 Climbing Honolulu Center
Sun 03:06:01 AM 22.5833 -156.3667 360° North 470 541 33,000 850 Climbing Honolulu Center
Sun 03:07:01 AM 22.7167 -156.3667 360° North 490 564 33,000  Level Honolulu Center
Sun 03:08:01 AM 22.8500 -156.3833 353° North 480 552 33,000  Level Honolulu Center
Sun 03:09:01 AM 22.9833 -156.3833 360° North 480 552 33,000  Level Honolulu Center
Sun 03:10:01 AM 23.1167 -156.3833 360° North 490 564 33,000  Level Honolulu Center
Sun 03:11:01 AM 23.2500 -156.3833 360° North 480 552 33,000  Level Honolulu Center
Sun 03:12:01 AM 23.3833 -156.3833 360° North 460 529 33,000  Level Honolulu Center
Sun 03:13:01 AM 23.5167 -156.3833 360° North 490 564 33,000  Level Honolulu Center
Sun 03:14:01 AM 23.6500 -156.3833 360° North 480 552 33,000  Level Honolulu Center
Sun 03:15:02 AM 23.7833 -156.3833 360° North 470 541 33,000  Level Honolulu Center
Sun 03:24:58 AM 24.9500 -156.4000 357° North 476 548 33,000  Level Oakland Oceanic (ODAPS)
Sun 03:26:01 AM 25.0500 -156.4000 354° North 474 545 33,000  Level Oakland Oceanic (ODAPS)
Sun 03:26:20 AM 25.2167 -156.4000 35° Northeast 474 545 33,000  Level Oakland Oceanic (ODAPS)
Sun 03:27:17 AM 25.4000 -156.2667 35° Northeast 486 559 33,000  Level Oakland Oceanic (ODAPS)
Sun 03:41:58 AM 27.0000 -155.0000 30° Northeast 475 547 33,000  Level Oakland Oceanic (ODAPS)
Sun 03:53:56 AM 28.3667 -154.1000 30° Northeast 476 548 33,000  Level Oakland Oceanic (ODAPS)
Sun 04:08:16 AM 30.0000 -153.0000 32° Northeast 477 549 33,000 75 Level Oakland Oceanic (ODAPS)
Sun 04:20:37 AM 31.3667 -152.0167 32° Northeast 475 547 35,000 65 Climbing Oakland Oceanic (ODAPS)
Sun 04:38:59 AM 33.3667 -150.5000 33° Northeast 510 587 35,000  Level Oakland Oceanic (ODAPS)
Sun 04:45:02 AM 34.0000 -150.0000 37° Northeast 484 557 35,000  Level Oakland Oceanic (ODAPS)
Sun 04:47:16 AM 34.2333 -149.7833 37° Northeast 487 560 35,000  Level Oakland Oceanic (ODAPS)
Sun 05:13:57 AM 36.9500 -147.1500 39° Northeast 486 559 35,000  Level Oakland Oceanic (ODAPS)
Sun 05:33:58 AM 39.0000 -145.0000 42° Northeast 498 573 35,000  Level Oakland Oceanic (ODAPS)
Sun 05:34:57 AM 39.1000 -144.8833 42° Northeast 500 575 35,000  Level Oakland Oceanic (ODAPS)
Sun 05:40:37 AM 39.6500 -144.2333 42° Northeast 502 578 35,000  Level Oakland Oceanic (ODAPS)
Sun 06:07:16 AM 42.3333 -140.9000 44° Northeast 506 582 35,000  Level Oakland Oceanic (ODAPS)
Sun 06:13:57 AM 43.0000 -140.0000 53° Northeast 492 566 35,000  Level Oakland Oceanic (ODAPS)
Sun 06:33:56 AM 44.6167 -136.8667 55° Northeast 482 555 35,000  Level Oakland Oceanic (ODAPS)
Sun 07:00:36 AM 46.5833 -132.5333 58° Northeast 478 550 35,000  Level Oakland Oceanic (ODAPS)
Sun 07:13:43 AM 47.4500 -130.3833 61° Northeast 450 518 35,000  Level Vancouver Center
Sun 07:14:00 AM 47.5078 -130.2634 60° Northeast 478 550 35,000  Level FlightAware Transoceanic
Sun 07:14:43 AM 47.5167 -130.2000 62° Northeast 460 529 35,000  Level Vancouver Center
Sun 07:15:00 AM 47.5721 -130.0982 60° Northeast 478 550 35,000  Level FlightAware Transoceanic
Sun 07:15:43 AM 47.5833 -130.0667 53° Northeast 470 541 35,000  Level Vancouver Center
Sun 07:16:00 AM 47.6362 -129.9326 60° Northeast 478 550 35,000  Level FlightAware Transoceanic
Sun 07:16:43 AM 47.6333 -129.9000 66° East 470 541 35,000  Level Vancouver Center
Sun 07:17:00 AM 47.7000 -129.7667 61° Northeast 478 550 35,000  Level FlightAware Transoceanic
Sun 07:17:43 AM 47.7000 -129.7000 64° Northeast 470 541 35,000  Level Vancouver Center
Sun 07:18:00 AM 47.7645 -129.5919 61° Northeast 478 550 35,000  Level FlightAware Transoceanic
Sun 07:18:43 AM 47.7667 -129.5333 59° Northeast 470 541 35,000  Level Vancouver Center
Sun 07:19:43 AM 47.8333 -129.3667 59° Northeast 480 552 35,000  Level Vancouver Center
Sun 07:20:43 AM 47.9000 -129.2000 59° Northeast 470 541 35,000  Level Vancouver Center
Sun 07:26:43 AM 48.2871 -128.1311 62° Northeast 472 543 35,000  Level FlightAware ADS-B (KPFC)
Sun 07:27:23 AM 48.3210 -128.0352 62° Northeast 472 543 35,000  Level FlightAware ADS-B (KPFC)
Sun 07:28:23 AM 48.3868 -127.8362 65° Northeast 475 547 35,000  Level FlightAware ADS-B (KPFC)
Sun 07:29:03 AM 48.4238 -127.7195 64° Northeast 476 548 35,000  Level FlightAware ADS-B (KPFC)
Sun 07:29:42 AM 48.4617 -127.6013 64° Northeast 477 549 35,000  Level FlightAware ADS-B (KPFC)
Sun 07:30:13 AM 48.4909 -127.5098 64° Northeast 478 550 35,000  Level FlightAware ADS-B (KPFC)
Sun 07:30:45 AM 48.5218 -127.4131 64° Northeast 478 550 35,000  Level FlightAware ADS-B (KPFC)
Sun 07:31:28 AM 48.5633 -127.2827 65° Northeast 475 547 35,000  Level FlightAware ADS-B (KPFC)
Sun 07:32:00 AM 48.5931 -127.1883 65° Northeast 475 547 35,000  Level FlightAware ADS-B (KPFC)
Sun 07:33:02 AM 48.6508 -127.0043 65° Northeast 479 551 35,000  Level FlightAware ADS-B (KPFC)
Sun 07:34:03 AM 48.7094 -126.8164 65° Northeast 481 554 35,000  Level FlightAware ADS-B (KPFC)
Sun 07:34:43 AM 48.7466 -126.6964 65° Northeast 481 554 35,000 -75 Level FlightAware ADS-B (KPFC)
Sun 07:35:23 AM 48.7816 -126.5829 65° Northeast 477 549 34,900 -896 Descending FlightAware ADS-B (KPFC)
Sun 07:36:57 AM 48.8714 -126.2886 66° East 475 547 33,000 -1,324 Descending FlightAware ADS-B (KPFC)
Sun 07:37:39 AM 48.9104 -126.1598 66° East 475 547 31,900 -2,061 Descending FlightAware ADS-B (KPFC)
Sun 07:39:08 AM 48.9896 -125.8968 66° East 454 522 28,500 -2,294 Descending FlightAware ADS-B (CYVR)
Sun 07:39:55 AM 49.0286 -125.7656 66° East 443 510 26,700 -2,250 Descending FlightAware ADS-B (CYVR)
Sun 07:40:20 AM 49.0418 -125.7060 78° East 441 507 25,800 -2,291 Descending FlightAware ADS-B (CYVR)
Sun 07:40:50 AM 49.0491 -125.5986 88° East 436 502 24,600 -2,300 Descending FlightAware ADS-B (CYVR)
Sun 07:41:20 AM 49.0516 -125.5064 88° East 429 494 23,500 -2,200 Descending FlightAware ADS-B (CYVR)
Sun 07:41:50 AM 49.0533 -125.4147 88° East 424 488 22,400 -2,164 Descending FlightAware ADS-B (CYVR)
Sun 07:42:21 AM 49.0549 -125.3265 88° East 418 481 21,300 -2,262 Descending FlightAware ADS-B (CYVR)
Sun 07:42:51 AM 49.0566 -125.2356 89° East 413 475 20,100 -2,262 Descending FlightAware ADS-B (CYVR)
Sun 07:43:22 AM 49.0581 -125.1514 89° East 408 470 19,000 -2,095 Descending FlightAware ADS-B (CYVR)
Sun 07:43:54 AM 49.0598 -125.0565 89° East 404 465 17,900 -2,197 Descending FlightAware ADS-B (CYVR)
Sun 07:44:33 AM 49.0617 -124.9457 90° East 401 461 16,400 -1,985 Descending FlightAware ADS-B (KPFC)
Sun 07:46:04 AM 49.0910 -124.7049 67° East 378 435 13,600 -1,905 Descending FlightAware ADS-B (CYVR)
Sun 07:46:39 AM 49.1148 -124.6230 66° East 371 427 12,400 -2,090 Descending FlightAware ADS-B (CYVR)
Sun 07:47:33 AM 49.1462 -124.5166 66° East 354 407 10,500 -1,553 Descending FlightAware ADS-B (CYVR)
Sun 07:48:04 AM 49.1723 -124.4274 66° East 326 375 10,200 -588 Descending FlightAware ADS-B (CYVR)
Sun 07:48:24 AM 49.1871 -124.3767 66° East 305 351 10,000 -667 Descending FlightAware ADS-B (FAKM / KIM)
Sun 07:48:40 AM 49.1955 -124.3478 66° East 294 338 9,800 -1,167 Descending FlightAware ADS-B (FAKM / KIM)
Sun 07:49:00 AM 49.2067 -124.3090 66° East 293 337 9,300 -1,200 Descending FlightAware ADS-B (FAKM / KIM)
Sun 07:49:15 AM 49.2125 -124.2891 66° East 292 336 9,100 -1,029 Descending FlightAware ADS-B (CYVR)
Sun 07:49:35 AM 49.2233 -124.2519 66° East 287 330 8,700 -1,000 Descending FlightAware ADS-B (CYVR)
Sun 07:49:45 AM 49.2305 -124.2263 66° East 283 326 8,600 -720 Descending FlightAware ADS-B (FAKM / KIM)
Sun 07:50:00 AM 49.2387 -124.1974 67° East 281 323 8,400 -800 Descending FlightAware ADS-B (FAKM / KIM)
Sun 07:50:15 AM 49.2444 -124.1773 67° East 281 323 8,200 -667 Descending FlightAware ADS-B (CYVR)
Sun 07:50:36 AM 49.2543 -124.1424 67° East 280 322 8,000 -732 Descending FlightAware ADS-B (CYVR)
Sun 07:50:56 AM 49.2648 -124.1054 67° East 279 321 7,700 -750 Descending FlightAware ADS-B (CYVR)
Sun 07:51:16 AM 49.2753 -124.0679 67° East 278 320 7,500 -828 Descending FlightAware ADS-B (CYVR)
Sun 07:51:25 AM 49.2797 -124.0429 82° East 279 321 7,300 -1,286 Descending FlightAware ADS-B (FAKM / KIM)
Sun 07:51:30 AM 49.2803 -124.0317 88° East 279 321 7,200 -857 Descending FlightAware ADS-B (FAKM / KIM)
Sun 07:51:39 AM 49.2797 -124.0152 97° East 279 321 7,100 -429 Descending FlightAware ADS-B (FAKM / KIM)
Sun 07:51:44 AM 49.2788 -124.0054 100° East 279 321 7,100 -571 Level FlightAware ADS-B (FAKM / KIM)
Sun 07:52:00 AM 49.2757 -123.9746 98° East 279 321 6,900 -857 Descending FlightAware ADS-B (FAKM / KIM)
Sun 07:52:05 AM 49.2749 -123.9658 99° East 279 321 6,800 -900 Descending FlightAware ADS-B (FAKM / KIM)
Sun 07:52:20 AM 49.2719 -123.9376 100° East 278 320 6,600 -545 Descending FlightAware ADS-B (FAKM / KIM)
Sun 07:52:38 AM 49.2687 -123.9089 100° East 277 319 6,500 -632 Descending FlightAware ADS-B (CYVR)
Sun 07:52:58 AM 49.2643 -123.8701 100° East 276 318 6,200 -750 Descending FlightAware ADS-B (CYVR)
Sun 07:53:18 AM 49.2606 -123.8366 100° East 276 318 6,000 -811 Descending FlightAware ADS-B (CYVR)
Sun 07:53:35 AM 49.2557 -123.7935 102° East 275 316 5,700 -686 Descending FlightAware ADS-B (FAKM / KIM)
Sun 07:53:53 AM 49.2518 -123.7650 100° East 274 315 5,600 -632 Descending FlightAware ADS-B (CYVR)
Sun 07:54:13 AM 49.2476 -123.7264 99° East 271 312 5,300 -811 Descending FlightAware ADS-B (CYVR)
Sun 07:54:30 AM 49.2436 -123.6876 99° East 261 300 5,100 -706 Descending FlightAware ADS-B (FAKM / KIM)
Sun 07:54:47 AM 49.2412 -123.6647 100° East 256 295 4,900 -632 Descending FlightAware ADS-B (CYVR)
Sun 07:55:08 AM 49.2372 -123.6290 99° East 244 281 4,700 -750 Descending FlightAware ADS-B (CYVR)
Sun 07:55:19 AM 49.2346 -123.6052 100° East 236 272 4,500 -692 Descending FlightAware ADS-B (FAKM / KIM)
Sun 07:55:34 AM 49.2315 -123.5773 100° East 228 262 4,400 -581 Descending FlightAware ADS-B (FAKM / KIM)
Sun 07:55:50 AM 49.2289 -123.5533 100° East 225 259 4,200 -529 Descending FlightAware ADS-B (FAKM / KIM)
Sun 07:56:08 AM 49.2263 -123.5301 100° East 227 261 4,100 -1,059 Descending FlightAware ADS-B (CYVR)
Sun 07:56:24 AM 49.2235 -123.5046 100° East 228 262 3,600 -1,548 Descending FlightAware ADS-B (FAKM / KIM)
Sun 07:56:39 AM 49.2201 -123.4746 100° East 229 264 3,300 -968 Descending FlightAware ADS-B (FAKM / KIM)
Sun 07:56:55 AM 49.2177 -123.4523 100° East 225 259 3,100 -1,029 Descending FlightAware ADS-B (FAKM / KIM)
Sun 07:57:14 AM 49.2140 -123.4196 100° East 221 254 2,700 -1,059 Descending FlightAware ADS-B (FAKM / KIM)
Sun 07:58:03 AM 49.2069 -123.3561 100° East 185 213 1,900 -960 Descending FlightAware ADS-B (CYVR)
Sun 07:58:29 AM 49.2033 -123.3247 100° East 166 191 1,500 -913 Descending FlightAware ADS-B (CYVR)
Sun 07:58:49 AM 49.2016 -123.3093 100° East 163 188 1,200 -857 Descending FlightAware ADS-B (CYVR)
Sun 07:59:11 AM 49.1980 -123.2774 100° East 157 181 900 -947 Descending FlightAware ADS-B (CYVR)
Sun 07:59:27 AM 49.1959 -123.2592 100° East 158 182 600 -923 Descending FlightAware ADS-B (CYVR)
Sun 07:59:50 AM 49.1931 -123.2346 101° East 151 174 300 -682 Descending FlightAware ADS-B (CYVR)
Sun 08:00:11 AM 49.1916 -123.2214 99° East 143 165 100 -571 Descending FlightAware ADS-B (CYVR)

Login

Don't have an account? Register now (free) for customized features, flight alerts, and more!